createdAt,value
2019-04-25T00:00:28.336Z,11.28
2019-04-25T00:02:55.131Z,11.30
2019-04-25T00:05:21.926Z,11.22
2019-04-25T00:07:48.704Z,11.03
2019-04-25T00:10:15.503Z,10.85
2019-04-25T00:12:43.243Z,10.72
2019-04-25T00:15:11.183Z,10.65
2019-04-25T00:17:40.108Z,10.69
2019-04-25T00:20:08.988Z,10.64
2019-04-25T00:22:51.532Z,10.52
2019-04-25T00:25:46.741Z,10.35
2019-04-25T00:28:14.525Z,10.23
2019-04-25T00:30:43.301Z,10.18
2019-04-25T00:33:11.553Z,10.22
2019-04-25T00:35:38.511Z,10.16
2019-04-25T00:38:05.347Z,10.16
2019-04-25T00:40:32.050Z,10.15
2019-04-25T00:42:58.827Z,10.14
2019-04-25T00:45:25.613Z,10.07
2019-04-25T00:47:52.925Z,10.03
2019-04-25T00:50:19.770Z,10.01
2019-04-25T00:52:46.455Z,10.02
2019-04-25T00:55:25.820Z,9.93
2019-04-25T01:00:25.527Z,9.96
2019-04-25T01:03:16.842Z,10.10
2019-04-25T01:05:44.849Z,5.67
2019-04-25T01:08:12.310Z,9.79
2019-04-25T01:10:39.011Z,9.78
2019-04-25T01:13:06.211Z,9.57
2019-04-25T01:15:33.994Z,9.67
2019-04-25T01:18:03.465Z,9.63
2019-04-25T01:20:30.258Z,9.54
2019-04-25T01:22:57.816Z,9.39
2019-04-25T01:25:25.378Z,9.28
2019-04-25T01:27:53.665Z,9.20
2019-04-25T01:30:23.994Z,9.15
2019-04-25T01:32:51.046Z,9.10
2019-04-25T01:35:24.137Z,9.13
2019-04-25T01:38:08.957Z,9.18
2019-04-25T01:41:07.103Z,9.20
2019-04-25T01:43:40.689Z,9.17
2019-04-25T01:46:09.276Z,9.26
2019-04-25T01:48:36.054Z,9.13
2019-04-25T01:51:04.099Z,9.18
2019-04-25T01:53:30.908Z,9.01
2019-04-25T01:56:02.711Z,8.89
2019-04-25T01:58:26.275Z,9.12
2019-04-25T02:00:55.062Z,9.23
2019-04-25T02:03:22.121Z,9.19
2019-04-25T02:05:48.890Z,9.18
2019-04-25T02:08:15.583Z,9.16
2019-04-25T02:10:44.281Z,9.22
2019-04-25T02:13:13.852Z,9.04
2019-04-25T02:15:40.931Z,9.04
2019-04-25T02:18:07.717Z,9.10
2019-04-25T02:20:34.410Z,9.00
2019-04-25T02:23:02.065Z,8.87
2019-04-25T02:25:28.874Z,8.81
2019-04-25T02:27:56.204Z,8.79
2019-04-25T02:30:25.448Z,9.29
2019-04-25T02:32:56.042Z,9.11
2019-04-25T02:35:21.323Z,9.09
2019-04-25T02:37:48.352Z,8.89
2019-04-25T02:40:18.365Z,8.94
2019-04-25T02:42:45.082Z,8.78
2019-04-25T02:45:37.234Z,8.82
2019-04-25T02:48:24.119Z,8.99
2019-04-25T02:51:14.597Z,9.31
2019-04-25T02:53:44.795Z,9.33
2019-04-25T02:56:27.604Z,9.51
2019-04-25T02:58:40.501Z,9.36
2019-04-25T03:01:17.987Z,9.48
2019-04-25T03:03:37.563Z,9.67
2019-04-25T03:06:07.507Z,9.46
2019-04-25T03:08:35.243Z,9.48
2019-04-25T03:11:04.694Z,9.36
2019-04-25T03:13:30.505Z,9.47
2019-04-25T03:15:58.546Z,9.52
2019-04-25T03:18:27.464Z,9.40
2019-04-25T03:21:01.168Z,9.31
2019-04-25T03:23:38.038Z,9.71
2019-04-25T03:26:06.143Z,9.71
2019-04-25T03:28:33.932Z,9.70
2019-04-25T03:31:02.162Z,9.65
2019-04-25T03:33:29.454Z,9.54
2019-04-25T03:35:56.146Z,9.34
2019-04-25T03:38:24.282Z,9.36
2019-04-25T03:40:51.028Z,9.08
2019-04-25T03:43:17.816Z,8.88
2019-04-25T03:45:45.282Z,7.83
2019-04-25T03:48:12.095Z,8.52
2019-04-25T03:50:38.877Z,8.45
2019-04-25T03:53:06.510Z,8.28
2019-04-25T03:55:34.056Z,8.19
2019-04-25T03:58:04.502Z,8.27
2019-04-25T04:00:30.615Z,8.35
2019-04-25T04:02:57.200Z,8.23
2019-04-25T04:05:23.971Z,8.45
2019-04-25T04:07:50.675Z,8.45
2019-04-25T04:10:17.449Z,8.44
2019-04-25T04:12:44.389Z,8.44
2019-04-25T04:15:11.419Z,8.47
2019-04-25T04:17:53.601Z,8.44
2019-04-25T04:20:40.125Z,8.72
2019-04-25T04:23:17.552Z,8.55
2019-04-25T04:25:44.412Z,8.54
2019-04-25T04:28:11.851Z,8.80
2019-04-25T04:30:38.691Z,8.67
2019-04-25T04:33:06.869Z,8.75
2019-04-25T04:35:33.866Z,8.82
2019-04-25T04:38:00.431Z,8.99
2019-04-25T04:40:27.069Z,9.04
2019-04-25T04:42:53.748Z,8.86
2019-04-25T04:45:20.442Z,8.84
2019-04-25T04:47:47.214Z,8.99
2019-04-25T04:50:15.299Z,8.90
2019-04-25T04:52:43.905Z,8.77
2019-04-25T04:55:11.597Z,8.78
2019-04-25T04:57:39.667Z,8.92
2019-04-25T05:00:07.065Z,8.77
2019-04-25T05:02:53.359Z,8.76
2019-04-25T05:05:39.871Z,8.74
2019-04-25T05:08:10.922Z,8.82
2019-04-25T05:10:37.728Z,8.82
2019-04-25T05:13:04.411Z,8.84
2019-04-25T05:15:31.323Z,8.89
2019-04-25T05:17:58.087Z,8.84
2019-04-25T05:20:24.899Z,8.97
2019-04-25T05:22:54.580Z,9.03
2019-04-25T05:25:20.670Z,9.13
2019-04-25T05:27:59.647Z,9.30
2019-04-25T05:30:21.643Z,9.87
2019-04-25T05:32:48.319Z,10.00
2019-04-25T05:35:16.275Z,10.08
2019-04-25T05:37:43.643Z,10.14
2019-04-25T05:40:10.685Z,10.22
2019-04-25T05:42:55.489Z,10.49
2019-04-25T05:45:24.750Z,10.94
2019-04-25T05:47:54.017Z,11.56
2019-04-25T05:50:21.989Z,12.15
2019-04-25T05:52:49.232Z,12.97
2019-04-25T05:55:17.604Z,13.28
2019-04-25T05:57:49.556Z,13.37
2019-04-25T06:00:15.095Z,12.78
2019-04-25T06:02:42.012Z,12.39
2019-04-25T06:05:08.803Z,12.13
2019-04-25T06:07:35.579Z,12.26
2019-04-25T06:10:19.496Z,12.45
2019-04-25T06:12:54.646Z,12.69
2019-04-25T06:15:25.021Z,13.35
2019-04-25T06:18:11.071Z,13.86
2019-04-25T06:20:37.871Z,14.92
2019-04-25T06:23:25.336Z,16.05
2019-04-25T06:25:53.780Z,16.49
2019-04-25T06:28:23.976Z,17.59
2019-04-25T06:30:51.880Z,17.34
2019-04-25T06:33:18.678Z,17.86
2019-04-25T06:35:45.741Z,18.14
2019-04-25T06:38:13.326Z,19.17
2019-04-25T06:40:40.151Z,19.93
2019-04-25T06:43:06.850Z,20.04
2019-04-25T06:45:51.651Z,21.02
2019-04-25T06:48:27.099Z,21.30
2019-04-25T06:50:53.888Z,22.30
2019-04-25T06:53:20.661Z,21.84
2019-04-25T06:55:47.463Z,20.55
2019-04-25T06:58:14.596Z,21.77
2019-04-25T07:00:55.805Z,21.32
2019-04-25T07:03:10.037Z,21.93
2019-04-25T07:05:40.426Z,23.14
2019-04-25T07:08:06.117Z,22.87
2019-04-25T07:10:33.896Z,23.72
2019-04-25T07:13:01.614Z,23.53
2019-04-25T07:15:28.489Z,22.53
2019-04-25T07:17:55.219Z,22.08
2019-04-25T07:20:24.876Z,22.70
2019-04-25T07:22:51.788Z,24.15
2019-04-25T07:25:20.592Z,23.92
2019-04-25T07:28:21.532Z,22.63
2019-04-25T07:31:10.142Z,23.83
2019-04-25T07:33:43.310Z,23.93
2019-04-25T07:36:10.290Z,24.85
2019-04-25T07:38:37.058Z,24.68
2019-04-25T07:41:03.904Z,24.43
2019-04-25T07:43:31.706Z,23.91
2019-04-25T07:45:59.170Z,24.37
2019-04-25T07:48:26.825Z,23.58
2019-04-25T07:50:53.772Z,23.59
2019-04-25T07:53:20.502Z,23.74
2019-04-25T07:55:47.211Z,24.27
2019-04-25T07:58:14.456Z,23.73
2019-04-25T08:00:41.393Z,22.77
2019-04-25T08:03:08.061Z,22.48
2019-04-25T08:05:35.675Z,23.59
2019-04-25T08:08:03.931Z,23.99
2019-04-25T08:10:48.275Z,24.32
2019-04-25T08:13:15.213Z,23.57
2019-04-25T08:15:53.747Z,23.54
2019-04-25T08:18:23.399Z,23.82
2019-04-25T08:20:49.842Z,23.16
2019-04-25T08:23:16.632Z,22.10
2019-04-25T08:25:43.425Z,21.60
2019-04-25T08:28:10.191Z,22.94
2019-04-25T08:30:38.090Z,24.26
2019-04-25T08:33:05.070Z,22.68
2019-04-25T08:35:34.220Z,23.47
2019-04-25T08:38:01.284Z,23.98
2019-04-25T08:40:29.544Z,24.87
2019-04-25T08:42:56.366Z,24.46
2019-04-25T08:45:24.469Z,24.20
2019-04-25T08:47:51.331Z,22.86
2019-04-25T08:50:40.172Z,22.16
2019-04-25T08:53:06.479Z,21.95
2019-04-25T08:55:50.865Z,21.76
2019-04-25T08:58:37.318Z,21.84
2019-04-25T09:01:11.427Z,21.85
2019-04-25T09:03:44.507Z,23.15
2019-04-25T09:06:13.302Z,25.32
2019-04-25T09:08:41.040Z,25.46
2019-04-25T09:11:07.942Z,24.86
2019-04-25T09:13:35.822Z,24.97
2019-04-25T09:16:03.680Z,25.21
2019-04-25T09:18:30.348Z,25.97
2019-04-25T09:20:57.137Z,25.89
2019-04-25T09:23:23.963Z,27.41
2019-04-25T09:25:50.757Z,26.72
2019-04-25T09:28:17.478Z,27.52
2019-04-25T09:30:44.936Z,27.55
2019-04-25T09:33:13.270Z,26.51
2019-04-25T09:35:41.623Z,26.22
2019-04-25T09:38:08.603Z,26.06
2019-04-25T09:40:36.119Z,25.89
2019-04-25T09:43:03.632Z,25.41
2019-04-25T09:45:39.666Z,27.07
2019-04-25T09:48:37.995Z,27.93
2019-04-25T09:51:15.063Z,26.38
2019-04-25T09:53:45.996Z,28.24
2019-04-25T09:56:25.633Z,30.61
2019-04-25T09:58:59.287Z,30.72
2019-04-25T10:01:26.896Z,28.94
2019-04-25T10:03:54.365Z,29.64
2019-04-25T10:06:21.400Z,27.38
2019-04-25T10:08:48.208Z,28.02
2019-04-25T10:11:15.221Z,26.18
2019-04-25T10:13:47.146Z,26.11
2019-04-25T10:16:13.929Z,26.40
2019-04-25T10:18:41.359Z,24.68
2019-04-25T10:21:10.600Z,25.99
2019-04-25T10:23:38.261Z,25.54
2019-04-25T10:26:06.839Z,27.18
2019-04-25T10:28:33.865Z,27.62
2019-04-25T10:31:00.743Z,27.85
2019-04-25T10:33:27.555Z,26.50
2019-04-25T10:36:00.589Z,26.63
2019-04-25T10:38:25.433Z,25.92
2019-04-25T10:40:53.584Z,27.02
2019-04-25T10:43:21.728Z,29.34
2019-04-25T10:45:49.330Z,26.08
2019-04-25T10:48:16.138Z,25.40
2019-04-25T10:50:45.173Z,25.44
2019-04-25T10:53:11.634Z,26.46
2019-04-25T10:55:57.944Z,26.04
2019-04-25T10:58:24.755Z,25.99
2019-04-25T11:00:52.936Z,26.25
2019-04-25T11:03:33.909Z,25.48
2019-04-25T11:06:00.812Z,26.66
2019-04-25T11:08:27.646Z,26.74
2019-04-25T11:10:55.845Z,25.92
2019-04-25T11:13:22.639Z,25.96
2019-04-25T11:15:49.838Z,26.25
2019-04-25T11:18:17.077Z,26.01
2019-04-25T11:20:44.681Z,26.95
2019-04-25T11:23:11.569Z,26.90
2019-04-25T11:25:38.467Z,26.51
2019-04-25T11:28:07.971Z,27.01
2019-04-25T11:30:37.906Z,26.26
2019-04-25T11:33:05.131Z,25.54
2019-04-25T11:35:31.992Z,27.79
2019-04-25T11:38:03.415Z,29.86
2019-04-25T11:40:56.001Z,29.26
2019-04-25T11:43:22.922Z,28.14
2019-04-25T11:45:49.727Z,30.21
2019-04-25T11:48:16.658Z,31.85
2019-04-25T11:50:48.163Z,31.76
2019-04-25T11:53:12.290Z,31.43
2019-04-25T11:55:39.081Z,31.61
2019-04-25T11:58:05.790Z,29.56
2019-04-25T12:00:33.867Z,30.87
2019-04-25T12:03:00.777Z,31.41
2019-04-25T12:05:27.956Z,32.06
2019-04-25T12:07:54.767Z,30.93
2019-04-25T12:10:24.233Z,30.23
2019-04-25T12:12:51.192Z,27.71
2019-04-25T12:15:21.886Z,27.57
2019-04-25T12:17:49.492Z,27.80
2019-04-25T12:20:16.376Z,27.69
2019-04-25T12:22:44.514Z,27.88
2019-04-25T12:25:13.426Z,29.81
2019-04-25T12:27:40.974Z,29.77
2019-04-25T12:30:08.088Z,31.01
2019-04-25T12:32:35.256Z,31.70
2019-04-25T12:35:04.090Z,34.30
2019-04-25T12:37:31.024Z,32.62
2019-04-25T12:39:57.825Z,34.15
2019-04-25T12:42:24.501Z,35.54
2019-04-25T12:45:06.851Z,35.04
2019-04-25T12:47:35.208Z,34.65
2019-04-25T12:50:02.126Z,35.09
2019-04-25T12:52:28.921Z,35.42
2019-04-25T12:54:58.070Z,34.30
2019-04-25T12:57:25.079Z,34.41
2019-04-25T12:59:51.784Z,32.51
2019-04-25T13:02:18.468Z,30.70
2019-04-25T13:04:45.283Z,30.61
2019-04-25T13:07:13.322Z,29.67
2019-04-25T13:09:40.688Z,29.66
2019-04-25T13:12:08.458Z,28.90
2019-04-25T13:14:35.407Z,29.38
2019-04-25T13:17:03.808Z,29.52
2019-04-25T13:19:30.801Z,31.95
2019-04-25T13:21:57.963Z,31.00
2019-04-25T13:24:24.920Z,30.04
2019-04-25T13:27:10.000Z,28.88
2019-04-25T13:29:57.424Z,29.16
2019-04-25T13:32:56.519Z,29.61
2019-04-25T13:35:28.004Z,30.23
2019-04-25T13:37:54.739Z,31.61
2019-04-25T13:40:21.677Z,31.43
2019-04-25T13:42:48.554Z,31.92
2019-04-25T13:45:15.376Z,30.56
2019-04-25T13:47:42.182Z,31.62
2019-04-25T13:50:09.072Z,31.49
2019-04-25T13:52:37.119Z,32.75
2019-04-25T13:55:05.223Z,31.66
2019-04-25T13:57:32.397Z,33.27
2019-04-25T13:59:59.249Z,34.30
2019-04-25T14:02:26.768Z,35.87
2019-04-25T14:04:53.793Z,35.22
2019-04-25T14:07:20.679Z,35.43
2019-04-25T14:09:48.694Z,35.31
2019-04-25T14:12:16.125Z,33.45
2019-04-25T14:14:44.114Z,32.51
2019-04-25T14:17:33.882Z,32.43
2019-04-25T14:20:25.232Z,32.08
2019-04-25T14:22:53.671Z,31.98
2019-04-25T14:25:21.141Z,32.41
2019-04-25T14:27:47.825Z,31.37
2019-04-25T14:30:16.578Z,28.94
2019-04-25T14:33:04.685Z,28.31
2019-04-25T14:35:31.728Z,30.04
2019-04-25T14:37:58.437Z,32.81
2019-04-25T14:40:26.885Z,33.48
2019-04-25T14:42:53.749Z,30.91
2019-04-25T14:45:21.590Z,29.50
2019-04-25T14:47:49.234Z,28.74
2019-04-25T14:50:16.249Z,28.74
2019-04-25T14:52:43.044Z,28.70
2019-04-25T14:55:29.601Z,28.15
2019-04-25T14:58:01.235Z,28.11
2019-04-25T15:00:35.986Z,28.58
2019-04-25T15:03:03.482Z,29.25
2019-04-25T15:05:30.992Z,29.30
2019-04-25T15:07:57.866Z,28.97
2019-04-25T15:10:24.684Z,28.63
2019-04-25T15:12:51.471Z,29.21
2019-04-25T15:15:18.311Z,29.52
2019-04-25T15:17:46.757Z,28.97
2019-04-25T15:20:13.798Z,29.13
2019-04-25T15:22:40.621Z,29.45
2019-04-25T15:25:07.445Z,29.89
2019-04-25T15:27:34.170Z,31.00
2019-04-25T15:30:01.389Z,30.92
2019-04-25T15:32:32.558Z,30.47
2019-04-25T15:34:59.383Z,29.51
2019-04-25T15:37:54.909Z,28.99
2019-04-25T15:40:29.922Z,29.86
2019-04-25T15:43:13.057Z,29.58
2019-04-25T15:45:45.232Z,28.85
2019-04-25T15:48:12.214Z,28.32
2019-04-25T15:50:39.099Z,27.35
2019-04-25T15:53:05.918Z,27.61
2019-04-25T15:55:32.822Z,27.34
2019-04-25T15:57:59.665Z,26.82
2019-04-25T16:00:33.285Z,26.65
2019-04-25T16:03:00.052Z,26.62
2019-04-25T16:05:27.669Z,26.36
2019-04-25T16:07:54.439Z,26.96
2019-04-25T16:10:21.260Z,26.84
2019-04-25T16:12:47.969Z,26.87
2019-04-25T16:15:14.647Z,27.41
2019-04-25T16:17:41.461Z,27.38
2019-04-25T16:20:08.397Z,26.71
2019-04-25T16:22:35.062Z,26.01
2019-04-25T16:25:01.897Z,25.90
2019-04-25T16:27:28.984Z,25.55
2019-04-25T16:29:55.887Z,25.80
2019-04-25T16:32:23.795Z,25.74
2019-04-25T16:34:50.590Z,25.84
2019-04-25T16:37:17.328Z,25.54
2019-04-25T16:39:44.221Z,25.51
2019-04-25T16:42:11.041Z,25.59
2019-04-25T16:44:37.822Z,25.62
2019-04-25T16:47:04.631Z,25.42
2019-04-25T16:49:32.504Z,25.54
2019-04-25T16:51:59.416Z,25.65
2019-04-25T16:54:26.301Z,25.74
2019-04-25T16:56:52.992Z,25.71
2019-04-25T17:01:45.046Z,25.84
2019-04-25T17:06:39.838Z,25.69
2019-04-25T17:09:06.637Z,25.37
2019-04-25T17:11:33.891Z,25.26
2019-04-25T17:14:26.243Z,25.26
2019-04-25T17:17:06.353Z,25.05
2019-04-25T17:19:47.425Z,25.13
2019-04-25T17:22:14.220Z,24.25
2019-04-25T17:24:41.262Z,24.45
2019-04-25T17:27:09.917Z,24.43
2019-04-25T17:29:36.512Z,24.16
2019-04-25T17:32:14.880Z,24.15
2019-04-25T17:35:03.959Z,24.19
2019-04-25T17:37:36.271Z,24.18
2019-04-25T17:40:10.546Z,24.07
2019-04-25T17:42:37.441Z,23.85
2019-04-25T17:45:06.940Z,23.66
2019-04-25T17:47:34.575Z,23.64
2019-04-25T17:50:01.309Z,23.39
2019-04-25T17:52:28.117Z,23.18
2019-04-25T17:54:54.795Z,23.02
2019-04-25T17:57:21.504Z,22.73
2019-04-25T17:59:48.444Z,22.43
2019-04-25T18:02:15.215Z,22.45
2019-04-25T18:04:42.508Z,22.18
2019-04-25T18:07:09.577Z,22.04
2019-04-25T18:09:36.827Z,21.86
2019-04-25T18:12:03.654Z,21.91
2019-04-25T18:14:30.449Z,21.84
2019-04-25T18:16:57.128Z,21.90
2019-04-25T18:19:31.839Z,21.95
2019-04-25T18:22:04.577Z,21.97
2019-04-25T18:24:57.749Z,21.93
2019-04-25T18:27:30.267Z,21.88
2019-04-25T18:29:56.958Z,21.83
2019-04-25T18:32:25.576Z,21.80
2019-04-25T18:35:14.832Z,21.74
2019-04-25T18:37:52.631Z,21.66
2019-04-25T18:40:28.805Z,21.68
2019-04-25T18:43:11.333Z,21.65
2019-04-25T18:45:40.271Z,21.35
2019-04-25T18:48:07.180Z,21.20
2019-04-25T18:50:34.078Z,21.06
2019-04-25T18:53:35.565Z,20.98
2019-04-25T18:56:28.651Z,20.87
2019-04-25T18:59:13.518Z,20.63
2019-04-25T19:02:04.952Z,20.38
2019-04-25T19:05:00.242Z,20.24
2019-04-25T19:07:27.123Z,20.05
2019-04-25T19:09:53.943Z,19.94
2019-04-25T19:12:20.828Z,19.81
2019-04-25T19:14:47.632Z,19.75
2019-04-25T19:17:14.603Z,19.53
2019-04-25T19:19:41.588Z,19.36
2019-04-25T19:22:08.279Z,19.43
2019-04-25T19:24:35.074Z,19.31
2019-04-25T19:27:01.855Z,19.32
2019-04-25T19:29:28.672Z,19.24
2019-04-25T19:31:55.452Z,19.11
2019-04-25T19:34:22.021Z,19.08
2019-04-25T19:36:49.107Z,19.11
2019-04-25T19:39:17.567Z,19.13
2019-04-25T19:41:49.686Z,19.18
2019-04-25T19:44:22.449Z,19.24
2019-04-25T19:46:51.263Z,19.15
2019-04-25T19:49:18.116Z,19.24
2019-04-25T19:51:45.152Z,19.11
2019-04-25T19:54:12.071Z,19.12
2019-04-25T19:56:38.968Z,18.96
2019-04-25T19:59:05.761Z,18.94
2019-04-25T20:01:32.530Z,19.02
2019-04-25T20:04:11.999Z,18.78
2019-04-25T20:06:57.044Z,18.64
2019-04-25T20:10:01.551Z,18.53
2019-04-25T20:12:31.793Z,18.51
2019-04-25T20:14:58.389Z,18.47
2019-04-25T20:17:25.065Z,18.58
2019-04-25T20:19:51.890Z,18.70
2019-04-25T20:22:18.717Z,18.73
2019-04-25T20:24:46.314Z,18.82
2019-04-25T20:27:12.995Z,18.77
2019-04-25T20:29:39.976Z,18.87
2019-04-25T20:32:07.226Z,19.03
2019-04-25T20:34:34.046Z,19.24
2019-04-25T20:37:00.841Z,19.30
2019-04-25T20:39:27.921Z,19.22
2019-04-25T20:41:54.646Z,19.30
2019-04-25T20:44:21.457Z,19.41
2019-04-25T20:46:48.515Z,19.38
2019-04-25T20:49:15.545Z,19.42
2019-04-25T20:51:42.248Z,19.27
2019-04-25T20:54:08.967Z,19.26
2019-04-25T20:56:35.730Z,19.15
2019-04-25T20:59:02.649Z,19.14
2019-04-25T21:01:29.316Z,19.18
2019-04-25T21:03:56.222Z,19.21
2019-04-25T21:06:28.058Z,19.30
2019-04-25T21:08:55.473Z,19.28
2019-04-25T21:11:22.209Z,19.15
2019-04-25T21:14:07.013Z,18.50
2019-04-25T21:16:53.867Z,18.00
2019-04-25T21:19:26.738Z,17.91
2019-04-25T21:21:54.226Z,18.22
2019-04-25T21:24:21.133Z,18.26
2019-04-25T21:26:47.715Z,18.69
2019-04-25T21:29:14.623Z,18.68
2019-04-25T21:31:41.207Z,18.71
2019-04-25T21:34:08.058Z,18.68
2019-04-25T21:36:35.103Z,18.37
2019-04-25T21:39:02.112Z,17.98
2019-04-25T21:41:41.294Z,17.55
2019-04-25T21:44:08.366Z,17.28
2019-04-25T21:46:35.152Z,17.21
2019-04-25T21:49:03.079Z,16.96
2019-04-25T21:51:32.964Z,16.70
2019-04-25T21:54:01.348Z,16.63
2019-04-25T21:56:28.379Z,16.39
2019-04-25T21:58:55.625Z,16.41
2019-04-25T22:01:26.806Z,16.38
2019-04-25T22:03:54.328Z,16.21
2019-04-25T22:06:22.169Z,16.10
2019-04-25T22:08:49.198Z,16.07
2019-04-25T22:11:15.988Z,16.06
2019-04-25T22:13:43.188Z,15.95
2019-04-25T22:16:10.369Z,15.86
2019-04-25T22:18:37.532Z,15.88
2019-04-25T22:21:04.630Z,15.77
2019-04-25T22:23:31.718Z,15.72
2019-04-25T22:25:59.087Z,15.65
2019-04-25T22:28:26.274Z,15.59
2019-04-25T22:30:57.697Z,15.56
2019-04-25T22:33:46.902Z,15.57
2019-04-25T22:36:17.686Z,15.48
2019-04-25T22:39:11.090Z,15.53
2019-04-25T22:41:40.441Z,15.50
2019-04-25T22:44:09.293Z,15.42
2019-04-25T22:46:36.375Z,15.39
2019-04-25T22:49:03.889Z,15.35
2019-04-25T22:51:38.313Z,15.39
2019-04-25T22:54:05.587Z,15.43
2019-04-25T22:56:34.502Z,15.46
2019-04-25T22:59:02.866Z,15.37
2019-04-25T23:01:49.814Z,15.21
2019-04-25T23:04:24.481Z,15.39
2019-04-25T23:06:51.343Z,15.40
2019-04-25T23:09:18.113Z,15.32
2019-04-25T23:11:45.016Z,15.25
2019-04-25T23:14:12.881Z,15.27
2019-04-25T23:16:40.967Z,15.34
2019-04-25T23:19:07.641Z,15.38
2019-04-25T23:21:34.637Z,15.23
2019-04-25T23:24:01.783Z,15.25
2019-04-25T23:26:48.115Z,15.28
2019-04-25T23:29:15.791Z,15.23
2019-04-25T23:31:42.583Z,15.23
2019-04-25T23:34:10.801Z,15.19
2019-04-25T23:36:37.649Z,15.17
2019-04-25T23:39:07.276Z,15.15
2019-04-25T23:41:34.308Z,15.14
2019-04-25T23:44:01.076Z,15.07
2019-04-25T23:46:30.740Z,15.04
2019-04-25T23:48:57.491Z,14.96
2019-04-25T23:51:24.175Z,14.86
2019-04-25T23:53:51.264Z,14.95
2019-04-25T23:56:18.038Z,14.97
2019-04-25T23:58:44.939Z,14.85
